Aviation Digital Data Service (ADDS)

Output produced by METARs form (0123 UTC 23 July 2017)
found at http://www.aviationweather.gov/adds/metars/
 
OLBA 222200Z 24004KT 220V280 8000 SCT026 28/22 Q1011
TAF OLBA 222200Z 2300/2406 15005KT 100V170 8000 SCT026 
     BECMG 2306/2308 25010KT 220V300 7000 
     BECMG 2318/2320 14004KT 8000 FEW026